• Join FlightAware (Why Join?)
  • Login
  • US Flag 
04:11PM EST


 

Airport Tracker/Info


-or-


 

Live Flight TrackerFlight Track Log ✈ N510SR ✈ 17-Sep-2013 ✈ KLAX - KSFO

Flight Track Log - Related Links

Times and Time Zones

All times are in EDT time to prevent confusion due to time zone crossing. See the N510SR flight status page for this flight to view local times or setup timezone preferences in your user account.

Time Position Orientation Groundspeed Altitude Reporting Facility
EDT Latitude Longitude Course Direction KTS MPH feet Rate Location/Type
11:55AM 33.9461 -118.4494 266° West 186 214 1,400  Level Los Angeles Center
11:56AM 33.9411 -118.5292 266° West 214 246 5,000 3,240 Climbing Los Angeles Center
11:57AM 33.9356 -118.6142 266° West 255 293 8,200 2,760 Climbing Los Angeles Center
11:58AM 33.9294 -118.7072 266° West 279 321 10,800 2,340 Climbing Los Angeles Center
11:59AM 33.9206 -118.8300 265° West 344 396 13,100 2,520 Climbing Los Angeles Center
12:00PM 33.9192 -118.9503 269° West 365 420 16,100 2,640 Climbing Los Angeles Center
12:01PM 33.9797 -119.0514 306° West 376 433 18,600 2,100 Climbing Los Angeles Center
12:02PM 34.0522 -119.1481 312° West 390 449 20,900 2,220 Climbing Los Angeles Center
12:03PM 34.1406 -119.2689 311° West 402 463 23,700 2,400 Climbing Los Angeles Center
12:04PM 34.2300 -119.3894 312° West 403 464 25,900 1,140 Climbing Los Angeles Center
12:06PM 34.3214 -119.4886 318° Northwest 437 503 26,100 60 Climbing Los Angeles Center
12:07PM 34.4122 -119.5908 317° Northwest 445 512 26,100 -60 Level Los Angeles Center
12:08PM 34.5031 -119.6944 317° Northwest 449 517 26,000  Descending Los Angeles Center
12:09PM 34.5956 -119.7983 317° Northwest 452 520 26,100  Climbing Los Angeles Center
12:10PM 34.6919 -119.9053 318° Northwest 454 522 26,000 -60 Descending Los Angeles Center
12:11PM 34.7831 -120.0092 317° Northwest 452 520 26,000 -300 Level Los Angeles Center
12:12PM 34.8906 -120.1294 317° Northwest 447 514 25,400 -780 Descending Los Angeles Center
12:13PM 34.9764 -120.2289 317° Northwest 436 502 24,500 -720 Descending Los Angeles Center
12:14PM 35.0608 -120.3244 317° Northwest 424 488 24,000 -300 Descending Los Angeles Center
12:15PM 35.1458 -120.4231 317° Northwest 423 487 24,000  Level Los Angeles Center
12:16PM 35.2306 -120.5231 316° Northwest 426 490 24,000  Level Los Angeles Center
12:17PM 35.3294 -120.6375 317° Northwest 426 490 24,000  Level Los Angeles Center
12:18PM 35.4161 -120.7378 317° Northwest 430 495 24,000  Level Los Angeles Center
12:19PM 35.4936 -120.8275 317° Northwest 385 443 24,000  Level Los Angeles Center
12:20PM 35.5608 -120.9075 316° Northwest 344 396 24,000  Level Los Angeles Center
12:21PM 35.6383 -120.9953 317° Northwest 333 383 24,000  Level Los Angeles Center
12:22PM 35.7103 -121.0692 320° Northwest 336 387 24,000  Level Los Angeles Center
12:23PM 35.7878 -121.1325 326° Northwest 334 384 24,000  Level Los Angeles Center
12:24PM 35.8628 -121.1983 325° Northwest 331 381 24,000  Level Los Angeles Center
12:26PM 35.9669 -121.2867 326° Northwest 325 374 24,000  Level Oakland Center
12:27PM 36.0575 -121.3656 325° Northwest 329 379 24,000  Level Oakland Center
12:28PM 36.1344 -121.4306 326° Northwest 333 383 24,000  Level Oakland Center
12:29PM 36.2094 -121.4972 324° Northwest 333 383 24,000 -300 Level Oakland Center
12:30PM 36.2861 -121.5633 325° Northwest 334 384 23,400 -1,380 Descending Oakland Center
12:31PM 36.3600 -121.6258 326° Northwest 325 374 21,200 -1,680 Descending Oakland Center
12:32PM 36.4311 -121.6867 325° Northwest 315 362 20,000 -600 Descending Oakland Center
12:33PM 36.5003 -121.7506 323° Northwest 310 357 20,000  Level Oakland Center
12:34PM 36.5719 -121.8139 325° Northwest 305 351 20,000 -600 Level Oakland Center
12:35PM 36.6422 -121.8703 327° Northwest 301 346 18,800 -1,320 Descending Oakland Center
12:36PM 36.7144 -121.9306 326° Northwest 309 356 17,400 -1,500 Descending Oakland Center
12:37PM 36.8167 -121.9833 338° Northwest 324 373 15,700 -1,500 Descending Northern Cal TRACON
12:38PM 36.9000 -122.0000 351° North 322 371 14,400 -1,440 Descending Northern Cal TRACON
12:39PM 36.9833 -122.0333 342° North 313 360 13,000 -1,440 Descending Northern Cal TRACON
12:40PM 37.0667 -122.0500 351° North 303 349 11,700 -1,560 Descending Northern Cal TRACON
12:41PM 37.1500 -122.0667 351° North 299 344 10,100 -900 Descending Northern Cal TRACON
12:42PM 37.2167 -122.0833 349° North 293 337 9,900 -1,080 Descending Northern Cal TRACON
12:43PM 37.3000 -122.1167 342° North 283 326 8,000 -1,620 Descending Northern Cal TRACON
12:44PM 37.3667 -122.1333 349° North 261 300 6,700 -1,380 Descending Northern Cal TRACON
12:45PM 37.4333 -122.1500 349° North 244 281 5,300 -1,560 Descending Northern Cal TRACON
12:46PM 37.5000 -122.1667 349° North 224 258 3,800 -1,380 Descending Northern Cal TRACON
12:47PM 37.5500 -122.1833 345° North 190 219 2,700 -960 Descending Northern Cal TRACON
12:48PM 37.5667 -122.2500 288° West 181 208 1,900 -900 Descending Northern Cal TRACON
12:49PM 37.5833 -122.3000 293° West 168 193 1,000 -780 Descending Northern Cal TRACON
12:50PM 37.6000 -122.3500 293° West 144 166 400 -480 Descending Northern Cal TRACON
12:50PM 37.6122 -122.3622 322° Northwest 164 189 300 -240 Descending Oakland Center
12:52PM 37.6167 -122.3667 322° Northwest  Level FlightAware Approximate